sensor_id;sensor_type;location;lat;lon;timestamp;pressure;altitude;pressure_sealevel;temperature;humidity
76358;BME280;65185;21.060;105.826;2024-01-15T00:00:12;102117.16;;;19.67;100.00
76358;BME280;65185;21.060;105.826;2024-01-15T00:02:38;102120.63;;;19.69;100.00
76358;BME280;65185;21.060;105.826;2024-01-15T00:05:05;102129.34;;;19.71;100.00
76358;BME280;65185;21.060;105.826;2024-01-15T00:07:32;102128.47;;;19.72;100.00
76358;BME280;65185;21.060;105.826;2024-01-15T00:09:58;102131.09;;;19.72;100.00
76358;BME280;65185;21.060;105.826;2024-01-15T00:12:25;102131.09;;;19.72;100.00
76358;BME280;65185;21.060;105.826;2024-01-15T00:14:51;102129.31;;;19.72;100.00
76358;BME280;65185;21.060;105.826;2024-01-15T00:17:18;102137.19;;;19.72;100.00
76358;BME280;65185;21.060;105.826;2024-01-15T00:19:45;102137.16;;;19.74;100.00
76358;BME280;65185;21.060;105.826;2024-01-15T00:22:11;102134.53;;;19.74;100.00
76358;BME280;65185;21.060;105.826;2024-01-15T00:24:38;102149.41;;;19.76;100.00
76358;BME280;65185;21.060;105.826;2024-01-15T00:27:04;102158.16;;;19.77;100.00
76358;BME280;65185;21.060;105.826;2024-01-15T00:29:31;102154.66;;;19.76;100.00
76358;BME280;65185;21.060;105.826;2024-01-15T00:31:57;102148.53;;;19.77;100.00
76358;BME280;65185;21.060;105.826;2024-01-15T00:34:24;102145.88;;;19.77;100.00
76358;BME280;65185;21.060;105.826;2024-01-15T00:36:51;102152.00;;;19.78;100.00
76358;BME280;65185;21.060;105.826;2024-01-15T00:39:18;102158.13;;;19.78;100.00
76358;BME280;65185;21.060;105.826;2024-01-15T00:41:44;102158.09;;;19.80;100.00
76358;BME280;65185;21.060;105.826;2024-01-15T00:44:11;102160.69;;;19.81;100.00
76358;BME280;65185;21.060;105.826;2024-01-15T00:46:44;102162.41;;;19.84;100.00
76358;BME280;65185;21.060;105.826;2024-01-15T00:49:12;102172.88;;;19.85;100.00
76358;BME280;65185;21.060;105.826;2024-01-15T00:51:39;102165.88;;;19.86;100.00
76358;BME280;65185;21.060;105.826;2024-01-15T00:54:06;102171.97;;;19.88;100.00
76358;BME280;65185;21.060;105.826;2024-01-15T00:56:33;102164.91;;;19.90;100.00
76358;BME280;65185;21.060;105.826;2024-01-15T00:59:00;102165.75;;;19.92;100.00
76358;BME280;65185;21.060;105.826;2024-01-15T01:01:27;102174.50;;;19.94;100.00
76358;BME280;65185;21.060;105.826;2024-01-15T01:03:53;102174.44;;;19.96;100.00
76358;BME280;65185;21.060;105.826;2024-01-15T01:06:20;102176.13;;;19.98;100.00
76358;BME280;65185;21.060;105.826;2024-01-15T01:08:47;102182.19;;;20.02;100.00
76358;BME280;65185;21.060;105.826;2024-01-15T01:11:14;102177.78;;;20.04;100.00
76358;BME280;65185;21.060;105.826;2024-01-15T01:13:42;102175.09;;;20.05;100.00
76358;BME280;65185;21.060;105.826;2024-01-15T01:16:08;102174.16;;;20.09;100.00
76358;BME280;65185;21.060;105.826;2024-01-15T01:18:35;102175.00;;;20.11;100.00
76358;BME280;65185;21.060;105.826;2024-01-15T01:21:02;102181.13;;;20.12;100.00
76358;BME280;65185;21.060;105.826;2024-01-15T01:23:28;102178.47;;;20.13;100.00
76358;BME280;65185;21.060;105.826;2024-01-15T01:25:55;102181.88;;;20.17;100.00
76358;BME280;65185;21.060;105.826;2024-01-15T01:28:22;102186.28;;;20.19;100.00
76358;BME280;65185;21.060;105.826;2024-01-15T01:30:48;102188.81;;;20.22;100.00
76358;BME280;65185;21.060;105.826;2024-01-15T01:33:15;102184.41;;;20.24;100.00
76358;BME280;65185;21.060;105.826;2024-01-15T01:35:42;102196.59;;;20.28;100.00
76358;BME280;65185;21.060;105.826;2024-01-15T01:38:09;102188.63;;;20.31;100.00
76358;BME280;65185;21.060;105.826;2024-01-15T01:40:36;102191.22;;;20.34;100.00
76358;BME280;65185;21.060;105.826;2024-01-15T01:43:04;102200.75;;;20.38;100.00
76358;BME280;65185;21.060;105.826;2024-01-15T01:45:31;102198.94;;;20.40;100.00
76358;BME280;65185;21.060;105.826;2024-01-15T01:47:57;102200.41;;;20.53;100.00
76358;BME280;65185;21.060;105.826;2024-01-15T01:50:24;102211.78;;;20.55;100.00
76358;BME280;65185;21.060;105.826;2024-01-15T01:52:51;102207.34;;;20.57;100.00
76358;BME280;65185;21.060;105.826;2024-01-15T01:55:18;102202.00;;;20.60;100.00
76358;BME280;65185;21.060;105.826;2024-01-15T01:57:45;102218.66;;;20.62;100.00
76358;BME280;65185;21.060;105.826;2024-01-15T02:00:13;102212.41;;;20.66;100.00
76358;BME280;65185;21.060;105.826;2024-01-15T02:02:39;102213.97;;;20.75;100.00
76358;BME280;65185;21.060;105.826;2024-01-15T02:05:06;102215.19;;;20.97;100.00
76358;BME280;65185;21.060;105.826;2024-01-15T02:07:35;102214.41;;;20.95;100.00
76358;BME280;65185;21.060;105.826;2024-01-15T02:10:02;102217.09;;;20.92;100.00
76358;BME280;65185;21.060;105.826;2024-01-15T02:12:29;102223.09;;;20.97;100.00
76358;BME280;65185;21.060;105.826;2024-01-15T02:14:56;102216.91;;;21.01;100.00
76358;BME280;65185;21.060;105.826;2024-01-15T02:17:22;102218.53;;;21.07;100.00
76358;BME280;65185;21.060;105.826;2024-01-15T02:19:49;102218.47;;;21.10;100.00
76358;BME280;65185;21.060;105.826;2024-01-15T02:22:16;102228.69;;;21.22;100.00
76358;BME280;65185;21.060;105.826;2024-01-15T02:24:43;102239.28;;;21.20;100.00
76358;BME280;65185;21.060;105.826;2024-01-15T02:27:10;102227.03;;;21.18;100.00
76358;BME280;65185;21.060;105.826;2024-01-15T02:29:36;102229.56;;;21.22;100.00
76358;BME280;65185;21.060;105.826;2024-01-15T02:32:07;102223.09;;;21.35;100.00
76358;BME280;65185;21.060;105.826;2024-01-15T02:34:34;102230.03;;;21.38;100.00
76358;BME280;65185;21.060;105.826;2024-01-15T02:37:01;102232.09;;;21.60;100.00
76358;BME280;65185;21.060;105.826;2024-01-15T02:39:28;102226.56;;;21.69;100.00
76358;BME280;65185;21.060;105.826;2024-01-15T02:41:54;102223.03;;;21.70;100.00
76358;BME280;65185;21.060;105.826;2024-01-15T02:44:23;102230.97;;;21.70;100.00
76358;BME280;65185;21.060;105.826;2024-01-15T02:46:50;102229.13;;;21.72;100.00
76358;BME280;65185;21.060;105.826;2024-01-15T02:49:17;102233.38;;;21.79;100.00
76358;BME280;65185;21.060;105.826;2024-01-15T02:51:43;102230.66;;;21.83;100.00
76358;BME280;65185;21.060;105.826;2024-01-15T02:54:10;102233.19;;;21.86;100.00
76358;BME280;65185;21.060;105.826;2024-01-15T02:56:37;102232.13;;;21.93;100.00
76358;BME280;65185;21.060;105.826;2024-01-15T02:59:03;102231.47;;;21.85;100.00
76358;BME280;65185;21.060;105.826;2024-01-15T03:01:30;102224.44;;;21.85;100.00
76358;BME280;65185;21.060;105.826;2024-01-15T03:03:56;102231.56;;;21.82;100.00
76358;BME280;65185;21.060;105.826;2024-01-15T03:06:23;102227.28;;;21.76;100.00
76358;BME280;65185;21.060;105.826;2024-01-15T03:08:50;102221.13;;;21.75;100.00
76358;BME280;65185;21.060;105.826;2024-01-15T03:11:16;102221.97;;;21.77;100.00
76358;BME280;65185;21.060;105.826;2024-01-15T03:13:43;102209.59;;;21.81;100.00
76358;BME280;65185;21.060;105.826;2024-01-15T03:16:10;102212.59;;;21.98;100.00
76358;BME280;65185;21.060;105.826;2024-01-15T03:18:37;102212.69;;;22.26;100.00
76358;BME280;65185;21.060;105.826;2024-01-15T03:21:05;102210.56;;;22.38;100.00
76358;BME280;65185;21.060;105.826;2024-01-15T03:23:32;102199.50;;;22.53;100.00
76358;BME280;65185;21.060;105.826;2024-01-15T03:25:58;102193.84;;;22.67;100.00
76358;BME280;65185;21.060;105.826;2024-01-15T03:28:25;102197.72;;;22.83;100.00
76358;BME280;65185;21.060;105.826;2024-01-15T03:30:52;102182.84;;;23.07;99.04
76358;BME280;65185;21.060;105.826;2024-01-15T03:33:18;102186.94;;;23.17;98.04
76358;BME280;65185;21.060;105.826;2024-01-15T03:35:45;102188.25;;;23.04;97.12
76358;BME280;65185;21.060;105.826;2024-01-15T03:38:11;102191.09;;;22.98;97.93
76358;BME280;65185;21.060;105.826;2024-01-15T03:40:37;102186.22;;;22.86;99.03
76358;BME280;65185;21.060;105.826;2024-01-15T03:43:04;102184.81;;;22.74;99.69
76358;BME280;65185;21.060;105.826;2024-01-15T03:45:30;102185.25;;;22.60;100.00
76358;BME280;65185;21.060;105.826;2024-01-15T03:47:57;102185.66;;;22.47;100.00
76358;BME280;65185;21.060;105.826;2024-01-15T03:50:24;102173.78;;;22.32;100.00
76358;BME280;65185;21.060;105.826;2024-01-15T03:52:50;102171.31;;;22.26;100.00
76358;BME280;65185;21.060;105.826;2024-01-15T03:55:17;102173.16;;;22.23;100.00
76358;BME280;65185;21.060;105.826;2024-01-15T03:57:44;102174.13;;;22.20;100.00
76358;BME280;65185;21.060;105.826;2024-01-15T04:00:11;102166.28;;;22.17;100.00
76358;BME280;65185;21.060;105.826;2024-01-15T04:02:38;102164.53;;;22.18;100.00
76358;BME280;65185;21.060;105.826;2024-01-15T04:05:05;102150.59;;;22.13;100.00
76358;BME280;65185;21.060;105.826;2024-01-15T04:07:31;102159.53;;;22.09;100.00
76358;BME280;65185;21.060;105.826;2024-01-15T04:09:58;102148.91;;;22.10;100.00
76358;BME280;65185;21.060;105.826;2024-01-15T04:12:25;102145.44;;;22.08;100.00
76358;BME280;65185;21.060;105.826;2024-01-15T04:14:51;102134.16;;;22.03;100.00
76358;BME280;65185;21.060;105.826;2024-01-15T04:17:18;102132.56;;;21.98;100.00
76358;BME280;65185;21.060;105.826;2024-01-15T04:19:44;102131.75;;;21.96;100.00
76358;BME280;65185;21.060;105.826;2024-01-15T04:22:11;102130.06;;;21.93;100.00
76358;BME280;65185;21.060;105.826;2024-01-15T04:24:37;102126.53;;;21.94;100.00
76358;BME280;65185;21.060;105.826;2024-01-15T04:27:04;102118.59;;;21.94;100.00
76358;BME280;65185;21.060;105.826;2024-01-15T04:29:31;102113.41;;;21.91;100.00
76358;BME280;65185;21.060;105.826;2024-01-15T04:31:57;102104.75;;;21.86;100.00
76358;BME280;65185;21.060;105.826;2024-01-15T04:34:24;102100.53;;;21.80;100.00
76358;BME280;65185;21.060;105.826;2024-01-15T04:36:50;102094.38;;;21.80;100.00
76358;BME280;65185;21.060;105.826;2024-01-15T04:39:17;102093.53;;;21.79;100.00
76358;BME280;65185;21.060;105.826;2024-01-15T04:41:43;102085.63;;;21.79;100.00
76358;BME280;65185;21.060;105.826;2024-01-15T04:44:10;102078.59;;;21.77;100.00
76358;BME280;65185;21.060;105.826;2024-01-15T04:46:36;102078.72;;;21.74;100.00
76358;BME280;65185;21.060;105.826;2024-01-15T04:49:03;102071.78;;;21.70;100.00
76358;BME280;65185;21.060;105.826;2024-01-15T04:51:30;102065.69;;;21.68;100.00
76358;BME280;65185;21.060;105.826;2024-01-15T04:53:56;102060.41;;;21.68;100.00
76358;BME280;65185;21.060;105.826;2024-01-15T04:56:23;102053.44;;;21.65;100.00
76358;BME280;65185;21.060;105.826;2024-01-15T04:58:49;102049.97;;;21.65;100.00
76358;BME280;65185;21.060;105.826;2024-01-15T05:01:16;102048.16;;;21.65;100.00
76358;BME280;65185;21.060;105.826;2024-01-15T05:03:43;102043.75;;;21.66;100.00
76358;BME280;65185;21.060;105.826;2024-01-15T05:06:10;102032.38;;;21.64;100.00
76358;BME280;65185;21.060;105.826;2024-01-15T05:08:37;102026.16;;;21.66;100.00
76358;BME280;65185;21.060;105.826;2024-01-15T05:11:03;102021.78;;;21.65;100.00
76358;BME280;65185;21.060;105.826;2024-01-15T05:13:30;102024.53;;;21.62;100.00
76358;BME280;65185;21.060;105.826;2024-01-15T05:15:57;102019.19;;;21.64;100.00
76358;BME280;65185;21.060;105.826;2024-01-15T05:18:23;102015.69;;;21.63;100.00
76358;BME280;65185;21.060;105.826;2024-01-15T05:20:50;101998.09;;;21.64;100.00
76358;BME280;65185;21.060;105.826;2024-01-15T05:23:18;101992.88;;;21.62;100.00
76358;BME280;65185;21.060;105.826;2024-01-15T05:25:44;101990.13;;;21.65;100.00
76358;BME280;65185;21.060;105.826;2024-01-15T05:28:11;101988.25;;;21.69;100.00
76358;BME280;65185;21.060;105.826;2024-01-15T05:30:37;101981.28;;;21.68;100.00
76358;BME280;65185;21.060;105.826;2024-01-15T05:33:04;101969.78;;;21.69;100.00
76358;BME280;65185;21.060;105.826;2024-01-15T05:35:31;101972.31;;;21.73;100.00
76358;BME280;65185;21.060;105.826;2024-01-15T05:37:57;101959.16;;;21.72;100.00
76358;BME280;65185;21.060;105.826;2024-01-15T05:40:23;101951.25;;;21.72;100.00
76358;BME280;65185;21.060;105.826;2024-01-15T05:42:50;101944.19;;;21.72;100.00
76358;BME280;65185;21.060;105.826;2024-01-15T05:45:17;101938.06;;;21.72;100.00
76358;BME280;65185;21.060;105.826;2024-01-15T05:47:43;101931.81;;;21.74;100.00
76358;BME280;65185;21.060;105.826;2024-01-15T05:50:10;101937.84;;;21.78;100.00
76358;BME280;65185;21.060;105.826;2024-01-15T05:52:36;101932.41;;;21.84;100.00
76358;BME280;65185;21.060;105.826;2024-01-15T05:55:04;101929.72;;;21.86;100.00
76358;BME280;65185;21.060;105.826;2024-01-15T05:57:30;101925.31;;;21.86;100.00
76358;BME280;65185;21.060;105.826;2024-01-15T05:59:57;101921.88;;;21.84;100.00
76358;BME280;65185;21.060;105.826;2024-01-15T06:02:24;101927.25;;;21.81;100.00
76358;BME280;65185;21.060;105.826;2024-01-15T06:04:52;101918.41;;;21.82;100.00
76358;BME280;65185;21.060;105.826;2024-01-15T06:07:19;101913.06;;;21.83;100.00
76358;BME280;65185;21.060;105.826;2024-01-15T06:09:46;101909.59;;;21.83;100.00
76358;BME280;65185;21.060;105.826;2024-01-15T06:12:13;101906.03;;;21.84;100.00
76358;BME280;65185;21.060;105.826;2024-01-15T06:14:41;101898.13;;;21.84;100.00
76358;BME280;65185;21.060;105.826;2024-01-15T06:17:09;101897.22;;;21.85;100.00
76358;BME280;65185;21.060;105.826;2024-01-15T06:19:36;101893.66;;;21.86;100.00
76358;BME280;65185;21.060;105.826;2024-01-15T06:22:03;101890.97;;;21.88;100.00
76358;BME280;65185;21.060;105.826;2024-01-15T06:24:30;101884.03;;;21.85;100.00
76358;BME280;65185;21.060;105.826;2024-01-15T06:26:57;101887.44;;;21.89;100.00
76358;BME280;65185;21.060;105.826;2024-01-15T06:29:26;101881.16;;;21.91;100.00
76358;BME280;65185;21.060;105.826;2024-01-15T06:31:53;101882.91;;;21.92;100.00
76358;BME280;65185;21.060;105.826;2024-01-15T06:34:20;101872.34;;;21.92;100.00
76358;BME280;65185;21.060;105.826;2024-01-15T06:36:48;101869.66;;;21.94;100.00
76358;BME280;65185;21.060;105.826;2024-01-15T06:39:15;101865.25;;;21.94;100.00
76358;BME280;65185;21.060;105.826;2024-01-15T06:41:42;101859.03;;;21.95;100.00
76358;BME280;65185;21.060;105.826;2024-01-15T06:44:12;101864.19;;;21.98;100.00
76358;BME280;65185;21.060;105.826;2024-01-15T06:46:43;101856.22;;;22.01;100.00
76358;BME280;65185;21.060;105.826;2024-01-15T06:49:10;101853.63;;;22.00;100.00
76358;BME280;65185;21.060;105.826;2024-01-15T06:51:37;101849.19;;;22.00;100.00
76358;BME280;65185;21.060;105.826;2024-01-15T06:54:04;101848.38;;;21.98;100.00
76358;BME280;65185;21.060;105.826;2024-01-15T06:56:32;101844.78;;;22.01;100.00
76358;BME280;65185;21.060;105.826;2024-01-15T06:58:59;101839.38;;;22.04;100.00
76358;BME280;65185;21.060;105.826;2024-01-15T07:01:26;101838.44;;;22.06;100.00
76358;BME280;65185;21.060;105.826;2024-01-15T07:03:53;101830.50;;;22.06;100.00
76358;BME280;65185;21.060;105.826;2024-01-15T07:06:20;101833.84;;;22.11;100.00
76358;BME280;65185;21.060;105.826;2024-01-15T07:08:47;101828.88;;;22.02;100.00
76358;BME280;65185;21.060;105.826;2024-01-15T07:11:14;101829.13;;;21.96;100.00
76358;BME280;65185;21.060;105.826;2024-01-15T07:13:41;101826.69;;;21.90;100.00
76358;BME280;65185;21.060;105.826;2024-01-15T07:16:08;101819.78;;;21.86;100.00
76358;BME280;65185;21.060;105.826;2024-01-15T07:18:35;101820.78;;;21.82;100.00
76358;BME280;65185;21.060;105.826;2024-01-15T07:21:02;101822.56;;;21.82;100.00
76358;BME280;65185;21.060;105.826;2024-01-15T07:23:31;101819.88;;;21.83;100.00
76358;BME280;65185;21.060;105.826;2024-01-15T07:25:58;101821.59;;;21.84;100.00
76358;BME280;65185;21.060;105.826;2024-01-15T07:28:25;101811.16;;;21.81;100.00
76358;BME280;65185;21.060;105.826;2024-01-15T07:30:54;101808.56;;;21.79;100.00
76358;BME280;65185;21.060;105.826;2024-01-15T07:33:21;101817.31;;;21.80;100.00
76358;BME280;65185;21.060;105.826;2024-01-15T07:35:48;101821.59;;;21.84;100.00
76358;BME280;65185;21.060;105.826;2024-01-15T07:38:15;101822.28;;;21.89;100.00
76358;BME280;65185;21.060;105.826;2024-01-15T07:40:43;101822.47;;;21.85;100.00
76358;BME280;65185;21.060;105.826;2024-01-15T07:43:09;101812.78;;;21.85;100.00
76358;BME280;65185;21.060;105.826;2024-01-15T07:45:37;101811.03;;;21.84;100.00
76358;BME280;65185;21.060;105.826;2024-01-15T07:48:04;101817.31;;;21.82;100.00
76358;BME280;65185;21.060;105.826;2024-01-15T07:50:31;101816.50;;;21.79;100.00
76358;BME280;65185;21.060;105.826;2024-01-15T07:52:58;101813.00;;;21.77;100.00
76358;BME280;65185;21.060;105.826;2024-01-15T07:55:25;101808.56;;;21.78;100.00
76358;BME280;65185;21.060;105.826;2024-01-15T07:57:52;101809.56;;;21.75;100.00
76358;BME280;65185;21.060;105.826;2024-01-15T08:00:25;101807.69;;;21.79;100.00
76358;BME280;65185;21.060;105.826;2024-01-15T08:02:52;101805.09;;;21.77;100.00
76358;BME280;65185;21.060;105.826;2024-01-15T08:05:19;101805.16;;;21.76;100.00
76358;BME280;65185;21.060;105.826;2024-01-15T08:07:47;101812.19;;;21.75;100.00
76358;BME280;65185;21.060;105.826;2024-01-15T08:10:14;101811.78;;;21.88;100.00
76358;BME280;65185;21.060;105.826;2024-01-15T08:12:42;101805.75;;;21.84;100.00
76358;BME280;65185;21.060;105.826;2024-01-15T08:15:09;101804.13;;;21.80;100.00
76358;BME280;65185;21.060;105.826;2024-01-15T08:17:36;101800.66;;;21.79;100.00
76358;BME280;65185;21.060;105.826;2024-01-15T08:20:03;101806.75;;;21.82;100.00
76358;BME280;65185;21.060;105.826;2024-01-15T08:22:31;101807.38;;;21.88;100.00
76358;BME280;65185;21.060;105.826;2024-01-15T08:24:58;101808.31;;;21.87;100.00
76358;BME280;65185;21.060;105.826;2024-01-15T08:27:25;101807.59;;;21.82;100.00
76358;BME280;65185;21.060;105.826;2024-01-15T08:29:51;101813.84;;;21.79;100.00
76358;BME280;65185;21.060;105.826;2024-01-15T08:32:18;101812.91;;;21.80;100.00
76358;BME280;65185;21.060;105.826;2024-01-15T08:34:45;101814.53;;;21.85;100.00
76358;BME280;65185;21.060;105.826;2024-01-15T08:37:14;101811.75;;;21.89;100.00
76358;BME280;65185;21.060;105.826;2024-01-15T08:39:41;101804.63;;;21.91;100.00
76358;BME280;65185;21.060;105.826;2024-01-15T08:42:08;101819.41;;;21.97;100.00
76358;BME280;65185;21.060;105.826;2024-01-15T08:44:35;101812.34;;;21.97;100.00
76358;BME280;65185;21.060;105.826;2024-01-15T08:47:03;101811.41;;;21.98;100.00
76358;BME280;65185;21.060;105.826;2024-01-15T08:49:30;101815.69;;;22.02;100.00
76358;BME280;65185;21.060;105.826;2024-01-15T08:51:57;101808.63;;;22.03;100.00
76358;BME280;65185;21.060;105.826;2024-01-15T08:54:24;101805.19;;;22.01;100.00
76358;BME280;65185;21.060;105.826;2024-01-15T08:56:51;101810.41;;;22.02;100.00
76358;BME280;65185;21.060;105.826;2024-01-15T08:59:19;101822.75;;;22.02;100.00
76358;BME280;65185;21.060;105.826;2024-01-15T09:01:53;101812.22;;;22.02;100.00
76358;BME280;65185;21.060;105.826;2024-01-15T09:04:23;101817.44;;;22.03;100.00
76358;BME280;65185;21.060;105.826;2024-01-15T09:06:50;101817.44;;;22.03;100.00
76358;BME280;65185;21.060;105.826;2024-01-15T09:09:17;101822.72;;;22.03;100.00
76358;BME280;65185;21.060;105.826;2024-01-15T09:11:45;101821.13;;;21.98;100.00
76358;BME280;65185;21.060;105.826;2024-01-15T09:14:12;101824.72;;;21.95;100.00
76358;BME280;65185;21.060;105.826;2024-01-15T09:16:40;101816.94;;;21.92;100.00
76358;BME280;65185;21.060;105.826;2024-01-15T09:19:07;101823.22;;;21.88;100.00
76358;BME280;65185;21.060;105.826;2024-01-15T09:21:34;101817.19;;;21.85;100.00
76358;BME280;65185;21.060;105.826;2024-01-15T09:24:01;101821.50;;;21.87;100.00
76358;BME280;65185;21.060;105.826;2024-01-15T09:26:28;101819.66;;;21.89;100.00
76358;BME280;65185;21.060;105.826;2024-01-15T09:28:55;101824.91;;;21.91;100.00
76358;BME280;65185;21.060;105.826;2024-01-15T09:31:22;101822.34;;;21.88;100.00
76358;BME280;65185;21.060;105.826;2024-01-15T09:33:49;101829.44;;;21.87;100.00
76358;BME280;65185;21.060;105.826;2024-01-15T09:36:22;101829.44;;;21.86;100.00
76358;BME280;65185;21.060;105.826;2024-01-15T09:38:49;101837.44;;;21.84;100.00
76358;BME280;65185;21.060;105.826;2024-01-15T09:41:17;101833.06;;;21.83;100.00
76358;BME280;65185;21.060;105.826;2024-01-15T09:43:45;101829.63;;;21.81;100.00
76358;BME280;65185;21.060;105.826;2024-01-15T09:46:12;101832.25;;;21.81;100.00
76358;BME280;65185;21.060;105.826;2024-01-15T09:48:40;101836.72;;;21.79;100.00
76358;BME280;65185;21.060;105.826;2024-01-15T09:51:07;101836.72;;;21.79;100.00
76358;BME280;65185;21.060;105.826;2024-01-15T09:53:35;101822.69;;;21.77;100.00
76358;BME280;65185;21.060;105.826;2024-01-15T09:56:04;101827.09;;;21.76;100.00
76358;BME280;65185;21.060;105.826;2024-01-15T09:58:32;101834.16;;;21.76;100.00
76358;BME280;65185;21.060;105.826;2024-01-15T10:01:00;101837.69;;;21.75;100.00
76358;BME280;65185;21.060;105.826;2024-01-15T10:03:29;101836.88;;;21.73;100.00
76358;BME280;65185;21.060;105.826;2024-01-15T10:05:58;101835.16;;;21.72;100.00
76358;BME280;65185;21.060;105.826;2024-01-15T10:08:26;101843.97;;;21.71;100.00
76358;BME280;65185;21.060;105.826;2024-01-15T10:10:53;101847.56;;;21.70;100.00
76358;BME280;65185;21.060;105.826;2024-01-15T10:13:19;101844.03;;;21.69;100.00
76358;BME280;65185;21.060;105.826;2024-01-15T10:15:47;101847.59;;;21.68;100.00
76358;BME280;65185;21.060;105.826;2024-01-15T10:18:14;101850.25;;;21.68;100.00
76358;BME280;65185;21.060;105.826;2024-01-15T10:20:41;101853.78;;;21.67;100.00
76358;BME280;65185;21.060;105.826;2024-01-15T10:23:08;101847.63;;;21.67;100.00
76358;BME280;65185;21.060;105.826;2024-01-15T10:25:41;101858.16;;;21.68;100.00
76358;BME280;65185;21.060;105.826;2024-01-15T10:28:09;101852.88;;;21.68;100.00
76358;BME280;65185;21.060;105.826;2024-01-15T10:30:36;101860.94;;;21.64;100.00
76358;BME280;65185;21.060;105.826;2024-01-15T10:33:04;101866.31;;;21.61;100.00
76358;BME280;65185;21.060;105.826;2024-01-15T10:35:33;101867.25;;;21.58;100.00
76358;BME280;65185;21.060;105.826;2024-01-15T10:38:03;101868.19;;;21.57;100.00
76358;BME280;65185;21.060;105.826;2024-01-15T10:40:31;101866.44;;;21.56;100.00
76358;BME280;65185;21.060;105.826;2024-01-15T10:42:58;101870.84;;;21.56;100.00
76358;BME280;65185;21.060;105.826;2024-01-15T10:45:25;101868.25;;;21.54;100.00
76358;BME280;65185;21.060;105.826;2024-01-15T10:47:53;101865.69;;;21.53;100.00
76358;BME280;65185;21.060;105.826;2024-01-15T10:50:25;101874.47;;;21.53;100.00
76358;BME280;65185;21.060;105.826;2024-01-15T10:52:52;101877.97;;;21.54;100.00
76358;BME280;65185;21.060;105.826;2024-01-15T10:55:20;101880.63;;;21.54;100.00
76358;BME280;65185;21.060;105.826;2024-01-15T10:57:48;101880.69;;;21.51;100.00
76358;BME280;65185;21.060;105.826;2024-01-15T11:00:16;101878.09;;;21.49;100.00
76358;BME280;65185;21.060;105.826;2024-01-15T11:02:44;101883.31;;;21.51;100.00
76358;BME280;65185;21.060;105.826;2024-01-15T11:05:11;101885.16;;;21.49;100.00
76358;BME280;65185;21.060;105.826;2024-01-15T11:07:40;101878.22;;;21.46;100.00
76358;BME280;65185;21.060;105.826;2024-01-15T11:10:08;101889.66;;;21.45;100.00
76358;BME280;65185;21.060;105.826;2024-01-15T11:12:36;101891.47;;;21.43;100.00
76358;BME280;65185;21.060;105.826;2024-01-15T11:15:08;101892.34;;;21.44;100.00
76358;BME280;65185;21.060;105.826;2024-01-15T11:18:00;101898.50;;;21.44;100.00
76358;BME280;65185;21.060;105.826;2024-01-15T11:20:30;101900.25;;;21.44;100.00
76358;BME280;65185;21.060;105.826;2024-01-15T11:22:59;101900.19;;;21.45;100.00
76358;BME280;65185;21.060;105.826;2024-01-15T11:25:35;101900.06;;;21.50;100.00
76358;BME280;65185;21.060;105.826;2024-01-15T11:28:06;101893.88;;;21.51;100.00
76358;BME280;65185;21.060;105.826;2024-01-15T11:30:36;101893.88;;;21.51;100.00
76358;BME280;65185;21.060;105.826;2024-01-15T11:33:03;101895.16;;;21.65;100.00
76358;BME280;65185;21.060;105.826;2024-01-15T11:35:51;101892.84;;;21.84;100.00
76358;BME280;65185;21.060;105.826;2024-01-15T11:38:28;101896.19;;;21.89;100.00
76358;BME280;65185;21.060;105.826;2024-01-15T11:40:55;101899.56;;;21.94;100.00
76358;BME280;65185;21.060;105.826;2024-01-15T11:43:26;101898.63;;;21.95;100.00
76358;BME280;65185;21.060;105.826;2024-01-15T11:45:57;101896.03;;;21.94;100.00
76358;BME280;65185;21.060;105.826;2024-01-15T11:48:38;101914.72;;;21.88;100.00
76358;BME280;65185;21.060;105.826;2024-01-15T11:51:11;101907.06;;;21.78;100.00
76358;BME280;65185;21.060;105.826;2024-01-15T11:53:47;101908.03;;;21.76;100.00
76358;BME280;65185;21.060;105.826;2024-01-15T11:56:16;101910.75;;;21.73;100.00
76358;BME280;65185;21.060;105.826;2024-01-15T11:58:55;101922.31;;;21.69;100.00
76358;BME280;65185;21.060;105.826;2024-01-15T12:01:22;101916.44;;;21.61;100.00
76358;BME280;65185;21.060;105.826;2024-01-15T12:03:49;101918.19;;;21.60;100.00
76358;BME280;65185;21.060;105.826;2024-01-15T12:06:16;101920.84;;;21.60;100.00
76358;BME280;65185;21.060;105.826;2024-01-15T12:08:43;101915.50;;;21.62;100.00
76358;BME280;65185;21.060;105.826;2024-01-15T12:11:13;101922.41;;;21.66;100.00
76358;BME280;65185;21.060;105.826;2024-01-15T12:13:43;101920.66;;;21.66;100.00
76358;BME280;65185;21.060;105.826;2024-01-15T12:16:10;101913.56;;;21.67;100.00
76358;BME280;65185;21.060;105.826;2024-01-15T12:18:38;101922.38;;;21.67;100.00
76358;BME280;65185;21.060;105.826;2024-01-15T12:21:07;101925.00;;;21.67;100.00